Aktualne dane pomiarowe

Uwaga, wersja testowa! Automatyczne pobieranie danych za pomocą narzędzi lub skryptów to umożliwiających jest zabronione.

Dane meteo z obszaru Polski uzyskane na podstawie depesz SYNOP pobieranych co godzinę z NWS. Najedź myszką na symbol przedstawiony w tabeli, aby uzyskać informacje co do jego znaczenia. Prosimy pamiętać, że to testowa wersja strony, która jeszcze nie jest ukończona. Stworzono również jest krótki FAQ dotyczący korzystania z tej podstrony Anomalie temperatury w chwili obecnej odniesione są do okresu referencyjnego 1951-2016. Okres ten będzie później zmieniony na 1981-2010. Kliknij ikonę aby pobrać plik CSV. Kliknij ikonę aby wygenerować mapę synoptyczną dla danego terminu.

Wybierz Datę:    

        

Radom (12485)

Dane terminowe dla wybranej stacji. Kliknij datę, aby otrzymać dane z tego terminu dla wszystkich stacji.

TemperaturaZachmurzenieWiatrCiśnienieOpadyPogoda
 Data t td wb tx tn tg rh  Nt Nl Cl Cm Ch ws wd g1 g2 wx mslp ppp ch 24h 12h t ww ww w1 w2  
2019-06-18 23:00:00 18.0 14.9 15.9--- 8210.0wx-wx2wx---1017.0 995.3 -0.6---------
2019-06-18 22:00:00 19.2 15.3 16.5--- 7810.0wx-wx1wx---1017.4 995.8 -0.1---------
2019-06-18 21:00:00 19.5 15.4 16.7--- 7710.0wx-wx2wx---1017.5 995.9 0.4---------
2019-06-18 20:00:00 21.0 15.6 17.4--- 7110.0wxwxwx2wx---1017.4 995.9 -0.2---------
2019-06-18 19:00:00 21.8 15.2 17.5--- 6610.0wxwxwx1wx---1017.3 995.9 -0.1---------
2019-06-18 18:00:00 23.4 15.2 18.1--- 6010.0wxwxwx2wx---1016.8 995.5 -0.7---------
2019-06-18 17:00:00 23.8 15.9 18.6--- 6110.0wxwxwx2wx---1017.1 995.8 -0.8---------
2019-06-18 16:00:00 24.0 15.5 18.5--- 5910.0wxwxwx2wx---1017.3 996.0 -1.3---------
2019-06-18 15:00:00 25.8 13.7 18.2--- 4710.0wxwxwx4wx---1017.4 996.2 -1.5---------
2019-06-18 14:00:00 25.7 12.2 17.5--- 4310.0wxwxwx3wx---1017.8 996.6 -1.5---------
2019-06-18 13:00:00 26.0 11.8 17.4--- 4110.0wxwxwx3wx---1018.4 997.2 -1.2---------
2019-06-18 12:00:00 25.4 12.0 17.3--- 4310.0wxwxwx2----1018.9 997.7 -1.1---------
2019-06-18 11:00:00 24.8 11.8 16.9--- 4410.0wxwxwx3wx---1019.5 998.2 -0.9---------
2019-06-18 10:00:00 24.3 12.6 17.1--- 4810.0wxwxwx3wx---1019.7 998.4 -1.0---------
2019-06-18 09:00:00 23.3 13.2 17.0--- 5310.0wxwxwxwx1----1020.2 998.8 -0.8---------
2019-06-18 08:00:00 22.9 13.7 17.1--- 5610.0wxwxwxwx2wx---1020.5 999.1 -0.3---------
2019-06-18 07:00:00 21.2 14.1 16.6--- 6410.0wxwxwxwx2wx---1021.0 999.4 0.3---------
2019-06-18 06:00:00 19.6 14.0 15.9--- 7010.0wxwxwxwx3wx---1021.3 999.6 0.5---------
2019-06-18 05:00:00 17.1 13.3 14.6--- 7810.0wxwxwxwx2wx---1021.4 999.5 0.4---------
2019-06-18 04:00:00 14.6 12.8 13.3--- 8910.0wxwxwxwx2wx---1021.2 999.1 0.1---------
2019-06-18 03:00:00 14.3 12.9 13.3--- 9110.0wx-wxwx2wx---1021.1 999.0 -0.2---------
2019-06-18 02:00:00 14.3 12.9 13.3--- 9110.0wx-wx2wx---1021.2 999.1 -0.2---------
2019-06-18 01:00:00 15.1 13.0 13.6--- 8710.0wx-wx2wx---1021.0 999.0 -0.1---------
2019-06-18 00:00:00 15.9 13.2 14.0--- 8410.0wx-wx2wx---1021.2 999.2 0.1---------
2019-06-17 23:00:00 16.1 13.2 14.1--- 8310.0wx-wx2wx---1021.2 999.3 0.4---------
2019-06-17 22:00:00 16.9 13.1 14.4--- 7810.0wx-wx2wx---1021.0 999.1 0.5---------
2019-06-17 21:00:00 18.0 13.1 14.8--- 7310.0wx-wxwx3wx---1020.9 999.1 0.9---------
2019-06-17 20:00:00 18.8 13.2 15.2--- 7010.0wx-wxwx3wx---1020.6 998.9 1.0---------
2019-06-17 19:00:00 20.2 13.0 15.6--- 6310.0wx-wxwx3wx---1020.2 998.6 0.5---------
2019-06-17 18:00:00 21.9 12.5 16.1--- 5510.0wxwxwxwxwx3wx---1019.6 998.1 -0.1---------
2019-06-17 17:00:00 23.1 12.7 16.7--- 5210.0wxwxwxwx3wx---1019.3 997.9 -0.7---------
2019-06-17 16:00:00 23.8 11.2 16.2--- 4510.0wxwxwxwxwx4wx---1019.4 998.1 -0.8---------
2019-06-17 15:00:00 24.2 10.9 16.3--- 4310.0wxwxwxwxwx4wx---1019.5 998.2 -1.0---------
2019-06-17 14:00:00 23.9 10.6 16.0--- 4310.0wxwxwxwxwx4wx---1019.9 998.6 -0.6---------
2019-06-17 13:00:00 23.5 11.2 16.1--- 4610.0wxwxwxwx5wx---1020.3 998.9 -0.2---------
2019-06-17 12:00:00 22.4 10.9 15.5--- 4810.0wxwxwxwx3wx---1020.7 999.2 -0.1---------
2019-06-17 11:00:00 21.5 11.0 15.2--- 5110.0wxwxwxwx4wx---1020.8 999.3 -0.1---------
2019-06-17 10:00:00 20.9 11.8 15.3--- 5610.0wxwxwxwx4wx---1020.7 999.1 0.1---------
2019-06-17 09:00:00 19.2 11.0 14.2--- 5910.0wxwxwxwx4wx---1021.0 999.3 0.3---------
2019-06-17 08:00:00 18.9 11.2 14.1--- 6110.0wxwxwxwx4wx---1021.1 999.4 0.6---------
2019-06-17 07:00:00 18.4 11.1 13.9--- 6210.0wxwxwxwx4wx---1021.1 999.3 1.1---------
2019-06-17 06:00:00 17.0 11.3 13.4--- 6910.0wxwxwxwx3wx---1020.9 999.0 1.0---------
2019-06-17 05:00:00 16.5 11.5 13.3--- 7210.0wx-wxwx3wx---1020.7 998.8 1.0---------
2019-06-17 04:00:00 16.3 11.4 13.2--- 7310.0wx-wxwx4wx---1020.1 998.2 0.4---------
2019-06-17 03:00:00 15.9 12.3 13.5--- 7910.0wx-wxwx3wx---1019.9 998.0 0.7---------
2019-06-17 02:00:00 16.1 13.2 14.1--- 8310.0wx-wx3wx---1019.7 997.8 0.6---------
2019-06-17 01:00:00 17.2 13.9 15.0--- 8110.0wxwxwxwx3wx---1019.5 997.7 0.5---------
2019-06-17 00:00:00 19.1 15.0 16.3--- 7710.0wxwxwxwx4wx---1018.8 997.1 1.3---------
4.1 ms

 

Print Friendly, PDF & Email